createdAt,value
2022-10-21T00:00:19.018Z,13.95
2022-10-21T00:02:46.043Z,13.43
2022-10-21T00:05:12.859Z,13.38
2022-10-21T00:07:39.777Z,12.80
2022-10-21T00:10:07.338Z,13.63
2022-10-21T00:12:34.983Z,12.85
2022-10-21T00:15:04.225Z,12.85
2022-10-21T00:17:31.056Z,12.45
2022-10-21T00:19:57.792Z,11.90
2022-10-21T00:22:24.541Z,12.13
2022-10-21T00:24:51.317Z,11.80
2022-10-21T00:27:18.092Z,12.23
2022-10-21T00:29:44.811Z,11.50
2022-10-21T00:32:11.511Z,11.93
2022-10-21T00:34:38.321Z,11.07
2022-10-21T00:37:05.075Z,11.73
2022-10-21T00:39:31.838Z,10.73
2022-10-21T00:41:58.576Z,11.07
2022-10-21T00:44:26.699Z,10.82
2022-10-21T00:47:00.716Z,10.88
2022-10-21T00:49:38.996Z,10.43
2022-10-21T00:52:09.257Z,10.30
2022-10-21T00:54:36.882Z,10.25
2022-10-21T00:57:03.742Z,10.48
2022-10-21T00:59:38.111Z,9.93
2022-10-21T01:02:04.874Z,10.13
2022-10-21T01:04:31.674Z,9.55
2022-10-21T01:06:59.747Z,10.38
2022-10-21T01:09:26.611Z,9.43
2022-10-21T01:11:53.769Z,9.63
2022-10-21T01:15:07.651Z,9.55
2022-10-21T01:17:44.533Z,9.43
2022-10-21T01:20:39.712Z,9.10
2022-10-21T01:23:32.007Z,9.70
2022-10-21T01:26:18.812Z,8.73
2022-10-21T01:29:10.677Z,8.82
2022-10-21T01:31:47.167Z,9.18
2022-10-21T01:37:51.631Z,9.07
2022-10-21T01:40:38.958Z,7.80
2022-10-21T01:43:29.262Z,7.82
2022-10-21T01:46:01.134Z,8.15
2022-10-21T01:48:33.543Z,8.20
2022-10-21T01:51:03.183Z,7.63
2022-10-21T01:56:02.029Z,8.07
2022-10-21T01:58:31.945Z,7.95
2022-10-21T02:01:01.118Z,8.05
2022-10-21T02:03:31.530Z,7.97
2022-10-21T02:05:58.934Z,7.82
2022-10-21T02:08:25.856Z,8.30
2022-10-21T02:10:56.743Z,7.75
2022-10-21T02:13:45.684Z,6.97
2022-10-21T02:16:16.496Z,7.88
2022-10-21T02:18:43.223Z,7.78
2022-10-21T02:21:18.511Z,7.28
2022-10-21T02:23:57.767Z,6.30
2022-10-21T02:28:56.404Z,7.10
2022-10-21T02:31:44.896Z,6.93
2022-10-21T02:34:17.325Z,7.10
2022-10-21T02:37:02.953Z,6.93
2022-10-21T02:39:36.344Z,6.18
2022-10-21T02:44:35.940Z,7.18
2022-10-21T02:47:03.846Z,6.43
2022-10-21T02:49:30.614Z,6.47
2022-10-21T02:51:57.405Z,6.60
2022-10-21T02:54:24.168Z,6.32
2022-10-21T02:56:50.898Z,6.18
2022-10-21T02:59:17.581Z,6.40
2022-10-21T03:01:44.311Z,5.93
2022-10-21T03:04:11.022Z,6.00
2022-10-21T03:06:37.751Z,6.25
2022-10-21T03:09:05.365Z,6.03
2022-10-21T03:11:32.163Z,6.10
2022-10-21T03:13:58.892Z,6.10
2022-10-21T03:16:25.695Z,6.03
2022-10-21T03:18:52.465Z,5.95
2022-10-21T03:21:19.214Z,5.97
2022-10-21T03:23:45.947Z,5.90
2022-10-21T03:26:12.721Z,5.53
2022-10-21T03:28:39.528Z,5.32
2022-10-21T03:31:06.259Z,5.82
2022-10-21T03:33:32.979Z,5.50
2022-10-21T03:35:59.774Z,5.72
2022-10-21T03:38:26.559Z,5.60
2022-10-21T03:40:53.288Z,5.25
2022-10-21T03:43:20.028Z,5.28
2022-10-21T03:45:47.775Z,5.40
2022-10-21T03:48:14.694Z,5.07
2022-10-21T03:50:41.540Z,5.60
2022-10-21T03:53:18.624Z,5.50
2022-10-21T03:55:56.522Z,5.13
2022-10-21T03:58:25.221Z,4.78
2022-10-21T04:00:53.092Z,4.95
2022-10-21T04:03:20.212Z,4.88
2022-10-21T04:05:47.122Z,5.70
2022-10-21T04:08:13.842Z,5.05
2022-10-21T04:10:40.727Z,4.60
2022-10-21T04:13:07.423Z,4.70
2022-10-21T04:15:34.192Z,4.90
2022-10-21T04:18:00.955Z,5.30
2022-10-21T04:20:27.752Z,4.70
2022-10-21T04:22:54.457Z,4.55
2022-10-21T04:25:21.143Z,4.50
2022-10-21T04:27:47.865Z,4.32
2022-10-21T04:30:14.622Z,4.55
2022-10-21T04:32:42.996Z,5.10
2022-10-21T04:35:09.742Z,4.50
2022-10-21T04:37:39.973Z,4.30
2022-10-21T04:40:08.176Z,4.43
2022-10-21T04:42:34.922Z,4.28
2022-10-21T04:45:01.622Z,4.32
2022-10-21T04:47:28.623Z,4.40
2022-10-21T04:49:55.323Z,4.57
2022-10-21T04:52:22.036Z,4.00
2022-10-21T04:54:48.771Z,4.13
2022-10-21T04:57:15.549Z,4.18
2022-10-21T04:59:42.332Z,4.55
2022-10-21T05:02:09.034Z,4.40
2022-10-21T05:04:35.803Z,4.28
2022-10-21T05:07:02.566Z,4.45
2022-10-21T05:09:29.264Z,4.18
2022-10-21T05:11:55.991Z,3.83
2022-10-21T05:14:22.999Z,4.00
2022-10-21T05:19:16.893Z,4.40
2022-10-21T05:21:43.804Z,3.50
2022-10-21T05:24:10.519Z,3.97
2022-10-21T05:26:37.326Z,3.53
2022-10-21T05:29:04.101Z,3.97
2022-10-21T05:31:30.901Z,3.70
2022-10-21T05:33:57.656Z,3.75
2022-10-21T05:36:24.467Z,3.60
2022-10-21T05:38:51.696Z,3.80
2022-10-21T05:41:18.652Z,3.42
2022-10-21T05:43:45.393Z,3.45
2022-10-21T05:46:12.125Z,3.83
2022-10-21T05:48:38.886Z,3.50
2022-10-21T05:51:05.755Z,3.28
2022-10-21T05:53:32.502Z,3.35
2022-10-21T05:56:01.271Z,3.47
2022-10-21T05:58:28.930Z,3.60
2022-10-21T06:00:56.105Z,3.33
2022-10-21T06:03:24.476Z,3.55
2022-10-21T06:05:51.641Z,3.20
2022-10-21T06:08:18.528Z,3.30
2022-10-21T06:10:45.292Z,3.17
2022-10-21T06:13:12.495Z,3.30
2022-10-21T06:15:39.219Z,3.25
2022-10-21T06:18:06.189Z,3.42
2022-10-21T06:20:33.674Z,3.00
2022-10-21T06:23:00.736Z,3.20
2022-10-21T06:25:27.723Z,3.15
2022-10-21T06:27:54.487Z,2.70
2022-10-21T06:30:22.972Z,3.15
2022-10-21T06:32:50.253Z,2.90
2022-10-21T06:35:17.014Z,2.83
2022-10-21T06:37:43.737Z,3.17
2022-10-21T06:40:10.856Z,2.63
2022-10-21T06:42:37.555Z,3.03
2022-10-21T06:45:04.630Z,2.60
2022-10-21T06:47:31.363Z,2.88
2022-10-21T06:50:02.817Z,2.65
2022-10-21T06:52:31.338Z,2.50
2022-10-21T06:54:58.105Z,2.70
2022-10-21T06:57:24.946Z,2.80
2022-10-21T06:59:51.831Z,2.80
2022-10-21T07:02:18.600Z,2.72
2022-10-21T07:04:45.772Z,3.00
2022-10-21T07:07:13.103Z,2.67
2022-10-21T07:12:07.002Z,2.92
2022-10-21T07:14:33.732Z,2.60
2022-10-21T07:17:00.636Z,2.60
2022-10-21T07:19:27.479Z,2.58
2022-10-21T07:21:54.519Z,2.63
2022-10-21T07:24:22.674Z,2.60
2022-10-21T07:26:49.739Z,2.45
2022-10-21T07:29:16.781Z,2.65
2022-10-21T07:31:43.640Z,2.75
2022-10-21T07:34:11.807Z,2.40
2022-10-21T07:36:44.166Z,2.50
2022-10-21T07:39:14.145Z,2.45
2022-10-21T07:41:47.424Z,7.78
2022-10-21T07:44:14.894Z,22.00
2022-10-21T07:46:42.601Z,9.50
2022-10-21T07:49:10.521Z,8.82
2022-10-21T07:51:38.117Z,5.85
2022-10-21T07:54:05.434Z,5.25
2022-10-21T07:56:35.058Z,5.43
2022-10-21T08:01:29.599Z,5.13
2022-10-21T08:03:56.663Z,5.68
2022-10-21T08:06:24.539Z,4.93
2022-10-21T08:08:51.401Z,5.80
2022-10-21T08:11:36.307Z,5.80
2022-10-21T08:14:06.847Z,5.22
2022-10-21T08:16:33.860Z,5.15
2022-10-21T08:19:01.444Z,4.43
2022-10-21T08:21:28.748Z,4.90
2022-10-21T08:23:55.463Z,4.90
2022-10-21T08:26:22.171Z,4.32
2022-10-21T08:28:49.005Z,4.10
2022-10-21T08:31:20.656Z,4.10
2022-10-21T08:33:47.589Z,4.22
2022-10-21T08:36:22.797Z,3.78
2022-10-21T08:38:49.812Z,4.03
2022-10-21T08:41:49.080Z,4.30
2022-10-21T08:44:18.550Z,3.88
2022-10-21T08:46:51.817Z,4.15
2022-10-21T08:49:28.591Z,3.90
2022-10-21T08:52:04.827Z,3.40
2022-10-21T08:54:45.372Z,3.50
2022-10-21T08:57:12.500Z,3.70
2022-10-21T08:59:42.754Z,3.45
2022-10-21T09:02:12.199Z,3.45
2022-10-21T09:04:59.936Z,9.27
2022-10-21T09:07:33.587Z,9.70
2022-10-21T09:10:03.672Z,7.15
2022-10-21T09:12:51.311Z,7.05
2022-10-21T09:15:32.443Z,6.45
2022-10-21T09:18:07.889Z,5.47
2022-10-21T09:20:44.429Z,5.10
2022-10-21T09:23:28.898Z,4.75
2022-10-21T09:26:02.302Z,4.75
2022-10-21T09:28:30.727Z,4.47
2022-10-21T09:31:09.373Z,4.50
2022-10-21T09:33:36.355Z,4.32
2022-10-21T09:36:08.313Z,4.50
2022-10-21T09:39:05.341Z,3.80
2022-10-21T09:41:40.620Z,4.18
2022-10-21T09:44:15.178Z,4.60
2022-10-21T09:46:44.305Z,4.18
2022-10-21T09:50:01.784Z,4.50
2022-10-21T09:52:15.531Z,3.83
2022-10-21T09:54:42.966Z,4.00
2022-10-21T09:57:44.284Z,3.97
2022-10-21T10:00:13.787Z,4.03
2022-10-21T10:02:43.943Z,3.88
2022-10-21T10:10:33.896Z,4.07
2022-10-21T10:13:01.548Z,3.70
2022-10-21T10:15:37.350Z,3.60
2022-10-21T10:18:04.641Z,3.40
2022-10-21T10:20:31.393Z,3.40
2022-10-21T10:23:01.090Z,3.63
2022-10-21T10:28:10.522Z,3.25
2022-10-21T10:30:43.345Z,16.23
2022-10-21T10:33:27.956Z,14.48
2022-10-21T10:35:57.817Z,13.38
2022-10-21T10:38:36.467Z,10.00
2022-10-21T10:41:06.063Z,7.90
2022-10-21T10:43:35.101Z,7.65
2022-10-21T10:46:04.863Z,7.03
2022-10-21T10:48:34.535Z,6.60
2022-10-21T10:56:15.969Z,5.85
2022-10-21T10:59:25.250Z,5.50
2022-10-21T11:02:07.737Z,44.03
2022-10-21T11:04:46.811Z,39.28
2022-10-21T11:07:44.503Z,29.10
2022-10-21T11:13:19.813Z,15.60
2022-10-21T11:16:12.643Z,13.93
2022-10-21T11:19:08.291Z,12.55
2022-10-21T11:21:50.276Z,11.93
2022-10-21T11:24:55.293Z,11.30
2022-10-21T11:27:40.237Z,10.63
2022-10-21T11:30:22.465Z,9.98
2022-10-21T11:32:59.584Z,9.80
2022-10-21T11:35:34.122Z,9.57
2022-10-21T11:38:14.464Z,8.38
2022-10-21T11:40:59.692Z,10.80
2022-10-21T11:43:35.535Z,13.70
2022-10-21T11:46:18.756Z,12.48
2022-10-21T11:48:52.857Z,13.15
2022-10-21T11:51:45.640Z,11.25
2022-10-21T11:54:44.560Z,10.82
2022-10-21T11:57:56.792Z,9.68
2022-10-21T12:00:25.684Z,9.40
2022-10-21T12:03:14.509Z,9.05
2022-10-21T12:05:55.557Z,8.52
2022-10-21T12:08:32.135Z,7.55
2022-10-21T12:13:50.420Z,7.32
2022-10-21T12:16:19.714Z,7.43
2022-10-21T12:18:52.728Z,7.47
2022-10-21T12:21:24.358Z,6.88
2022-10-21T12:23:58.876Z,6.45
2022-10-21T12:27:08.386Z,6.50
2022-10-21T12:34:37.878Z,6.72
2022-10-21T12:37:04.611Z,6.30
2022-10-21T12:39:34.399Z,5.97
2022-10-21T12:42:13.084Z,6.35
2022-10-21T12:47:31.377Z,5.72
2022-10-21T12:50:06.696Z,5.57
2022-10-21T12:52:38.274Z,6.25
2022-10-21T12:55:08.639Z,5.22
2022-10-21T12:57:37.744Z,5.80
2022-10-21T13:03:07.906Z,6.15
2022-10-21T13:05:37.695Z,5.72
2022-10-21T13:08:22.928Z,5.80
2022-10-21T13:11:04.811Z,5.35
2022-10-21T13:13:34.414Z,5.68
2022-10-21T13:18:51.363Z,5.40
2022-10-21T13:21:41.581Z,5.38
2022-10-21T13:24:34.487Z,4.97
2022-10-21T13:27:04.217Z,5.40
2022-10-21T13:29:37.199Z,5.60
2022-10-21T13:32:18.750Z,5.38
2022-10-21T13:34:48.944Z,5.15
2022-10-21T13:37:22.485Z,4.85
2022-10-21T13:39:50.104Z,4.95
2022-10-21T13:42:18.226Z,5.45
2022-10-21T13:44:52.470Z,4.65
2022-10-21T13:47:28.389Z,4.88
2022-10-21T13:50:11.059Z,5.28
2022-10-21T13:52:37.777Z,4.72
2022-10-21T13:55:05.424Z,4.75
2022-10-21T13:57:34.541Z,38.63
2022-10-21T14:00:09.681Z,46.83
2022-10-21T14:02:36.498Z,40.03
2022-10-21T14:05:03.435Z,30.52
2022-10-21T14:07:30.266Z,24.70
2022-10-21T14:09:58.909Z,19.77
2022-10-21T14:12:36.544Z,19.03
2022-10-21T14:15:18.071Z,17.35
2022-10-21T14:17:55.119Z,16.55
2022-10-21T14:20:34.119Z,15.68
2022-10-21T14:23:08.998Z,13.43
2022-10-21T14:25:35.839Z,17.50
2022-10-21T14:28:04.324Z,17.90
2022-10-21T14:30:33.148Z,16.15
2022-10-21T14:33:03.513Z,14.77
2022-10-21T14:35:30.874Z,13.95
2022-10-21T14:38:24.564Z,13.73
2022-10-21T14:40:57.966Z,12.27
2022-10-21T14:43:33.448Z,12.63
2022-10-21T14:46:00.269Z,11.80
2022-10-21T14:48:30.655Z,11.23
2022-10-21T14:51:03.302Z,11.15
2022-10-21T14:53:34.628Z,11.60
2022-10-21T14:56:03.800Z,10.25
2022-10-21T14:58:36.316Z,10.80
2022-10-21T15:01:22.087Z,9.85
2022-10-21T15:03:52.629Z,10.30
2022-10-21T15:06:29.962Z,9.30
2022-10-21T15:08:56.882Z,9.43
2022-10-21T15:11:41.960Z,9.52
2022-10-21T15:14:15.038Z,9.43
2022-10-21T15:17:02.187Z,8.85
2022-10-21T15:19:40.444Z,8.40
2022-10-21T15:22:24.600Z,8.75
2022-10-21T15:24:52.784Z,8.15
2022-10-21T15:27:27.321Z,8.10
2022-10-21T15:29:54.168Z,7.80
2022-10-21T15:32:24.339Z,7.22
2022-10-21T15:34:54.013Z,7.85
2022-10-21T15:37:20.850Z,7.63
2022-10-21T15:39:48.609Z,7.55
2022-10-21T15:42:18.012Z,7.78
2022-10-21T15:44:49.324Z,7.28
2022-10-21T15:47:16.661Z,6.57
2022-10-21T15:49:45.845Z,6.60
2022-10-21T15:52:13.873Z,6.53
2022-10-21T15:54:41.013Z,7.18
2022-10-21T15:57:19.655Z,6.57
2022-10-21T15:59:47.322Z,6.30
2022-10-21T16:02:17.091Z,6.13
2022-10-21T16:04:44.877Z,6.20
2022-10-21T16:07:24.643Z,5.43
2022-10-21T16:09:51.479Z,6.20
2022-10-21T16:12:20.048Z,6.38
2022-10-21T16:14:46.865Z,6.22
2022-10-21T16:17:14.000Z,7.68
2022-10-21T16:19:41.072Z,7.07
2022-10-21T16:22:18.164Z,6.70
2022-10-21T16:24:44.870Z,6.57
2022-10-21T16:27:20.213Z,6.35
2022-10-21T16:29:58.231Z,5.75
2022-10-21T16:32:24.928Z,6.20
2022-10-21T16:34:51.667Z,6.35
2022-10-21T16:37:23.246Z,5.68
2022-10-21T16:39:49.994Z,21.98
2022-10-21T16:42:16.769Z,35.85
2022-10-21T16:44:45.101Z,32.55
2022-10-21T16:47:17.671Z,22.98
2022-10-21T16:49:44.528Z,20.75
2022-10-21T16:52:15.327Z,18.25
2022-10-21T16:54:43.429Z,16.23
2022-10-21T16:57:12.063Z,13.68
2022-10-21T16:59:38.788Z,13.10
2022-10-21T17:02:15.140Z,12.43
2022-10-21T17:04:43.101Z,11.40
2022-10-21T17:07:10.763Z,10.80
2022-10-21T17:09:37.655Z,10.63
2022-10-21T17:12:04.699Z,10.15
2022-10-21T17:14:31.612Z,10.10
2022-10-21T17:16:58.381Z,9.88
2022-10-21T17:19:25.161Z,9.25
2022-10-21T17:21:51.896Z,9.48
2022-10-21T17:24:18.844Z,9.18
2022-10-21T17:26:45.661Z,8.43
2022-10-21T17:29:12.642Z,8.82
2022-10-21T17:31:41.333Z,8.60
2022-10-21T17:34:16.740Z,8.90
2022-10-21T17:36:43.456Z,8.57
2022-10-21T17:39:10.167Z,8.45
2022-10-21T17:41:36.893Z,8.55
2022-10-21T17:44:04.195Z,8.70
2022-10-21T17:46:30.894Z,8.85
2022-10-21T17:48:58.021Z,8.85
2022-10-21T17:51:25.157Z,28.83
2022-10-21T17:53:53.126Z,37.83
2022-10-21T17:56:20.466Z,30.77
2022-10-21T17:58:54.646Z,27.38
2022-10-21T18:01:22.397Z,23.95
2022-10-21T18:03:49.226Z,22.17
2022-10-21T18:06:16.620Z,20.60
2022-10-21T18:08:44.024Z,18.48
2022-10-21T18:11:13.347Z,18.40
2022-10-21T18:13:40.860Z,16.23
2022-10-21T18:16:10.112Z,15.52
2022-10-21T18:18:37.368Z,15.73
2022-10-21T18:21:06.537Z,13.73
2022-10-21T18:23:33.750Z,13.07
2022-10-21T18:26:05.193Z,13.38
2022-10-21T18:28:33.862Z,12.23
2022-10-21T18:31:01.688Z,12.57
2022-10-21T18:33:28.982Z,11.98
2022-10-21T18:35:55.926Z,11.50
2022-10-21T18:38:22.872Z,11.68
2022-10-21T18:40:56.483Z,10.73
2022-10-21T18:43:28.901Z,11.05
2022-10-21T18:45:56.764Z,10.80
2022-10-21T18:48:23.556Z,10.07
2022-10-21T18:50:50.375Z,78.75
2022-10-21T18:53:17.046Z,72.63
2022-10-21T18:55:43.738Z,53.85
2022-10-21T18:58:10.442Z,40.58
2022-10-21T19:00:37.225Z,35.35
2022-10-21T19:03:04.462Z,31.63
2022-10-21T19:05:31.267Z,27.65
2022-10-21T19:07:57.927Z,26.92
2022-10-21T19:10:24.676Z,23.50
2022-10-21T19:12:52.472Z,21.48
2022-10-21T19:15:19.675Z,20.00
2022-10-21T19:17:47.485Z,19.27
2022-10-21T19:20:14.667Z,18.70
2022-10-21T19:22:41.406Z,17.33
2022-10-21T19:25:08.542Z,21.10
2022-10-21T19:27:35.225Z,21.73
2022-10-21T19:30:01.978Z,18.70
2022-10-21T19:32:28.694Z,17.80
2022-10-21T19:34:55.406Z,16.30
2022-10-21T19:37:22.074Z,16.70
2022-10-21T19:39:49.133Z,15.18
2022-10-21T19:42:15.904Z,14.73
2022-10-21T19:44:42.625Z,14.75
2022-10-21T19:47:09.366Z,14.65
2022-10-21T19:49:36.064Z,13.52
2022-10-21T19:52:03.238Z,14.10
2022-10-21T19:54:29.921Z,13.40
2022-10-21T19:59:23.795Z,12.82
2022-10-21T20:01:50.676Z,12.77
2022-10-21T20:06:44.523Z,11.85
2022-10-21T20:09:13.224Z,11.63
2022-10-21T20:11:41.171Z,11.63
2022-10-21T20:14:08.071Z,11.82
2022-10-21T20:16:41.829Z,10.88
2022-10-21T20:19:08.700Z,11.30
2022-10-21T20:21:36.485Z,11.65
2022-10-21T20:24:03.596Z,10.85
2022-10-21T20:26:30.496Z,9.98
2022-10-21T20:28:57.734Z,11.52
2022-10-21T20:33:51.986Z,10.68
2022-10-21T20:36:21.440Z,10.98
2022-10-21T20:38:48.561Z,9.43
2022-10-21T20:41:21.832Z,9.30
2022-10-21T20:43:49.544Z,9.70
2022-10-21T20:46:16.829Z,10.02
2022-10-21T20:48:45.802Z,9.27
2022-10-21T20:51:15.918Z,9.65
2022-10-21T20:56:19.905Z,8.82
2022-10-21T20:58:47.265Z,9.07
2022-10-21T21:01:18.039Z,9.13
2022-10-21T21:03:45.711Z,9.20
2022-10-21T21:06:12.705Z,9.20
2022-10-21T21:08:48.928Z,8.73
2022-10-21T21:11:21.129Z,8.88
2022-10-21T21:13:48.198Z,8.63
2022-10-21T21:16:20.371Z,8.35
2022-10-21T21:18:55.780Z,8.40
2022-10-21T21:21:24.567Z,7.97
2022-10-21T21:23:53.075Z,54.92
2022-10-21T21:26:26.794Z,84.32
2022-10-21T21:28:55.519Z,64.63
2022-10-21T21:31:24.687Z,47.27
2022-10-21T21:33:51.521Z,42.67
2022-10-21T21:36:19.790Z,35.58
2022-10-21T21:41:16.796Z,28.27
2022-10-21T21:43:47.662Z,26.77
2022-10-21T21:46:22.534Z,24.35
2022-10-21T21:48:54.187Z,24.48
2022-10-21T21:51:23.148Z,23.73
2022-10-21T21:53:50.474Z,31.98
2022-10-21T21:56:19.129Z,138.85
2022-10-21T21:58:47.857Z,113.17
2022-10-21T22:01:20.611Z,85.23
2022-10-21T22:03:50.256Z,74.28
2022-10-21T22:08:47.514Z,53.80
2022-10-21T22:11:18.200Z,49.72
2022-10-21T22:13:45.001Z,45.40
2022-10-21T22:16:13.225Z,42.72
2022-10-21T22:18:40.421Z,40.67
2022-10-21T22:21:09.331Z,40.00
2022-10-21T22:23:38.246Z,38.08
2022-10-21T22:26:06.171Z,38.03
2022-10-21T22:28:32.998Z,36.25
2022-10-21T22:31:06.012Z,34.33
2022-10-21T22:33:32.977Z,34.00
2022-10-21T22:35:59.793Z,34.50
2022-10-21T22:38:26.967Z,33.45
2022-10-21T22:40:58.735Z,31.55
2022-10-21T22:43:26.750Z,30.88
2022-10-21T22:46:01.142Z,29.10
2022-10-21T22:48:40.946Z,29.42
2022-10-21T22:51:07.735Z,29.60
2022-10-21T22:53:35.339Z,27.95
2022-10-21T22:56:02.292Z,26.92
2022-10-21T22:58:29.040Z,27.33
2022-10-21T23:03:27.381Z,26.80
2022-10-21T23:05:54.088Z,25.83
2022-10-21T23:08:21.248Z,25.10
2022-10-21T23:10:49.030Z,25.15
2022-10-21T23:13:16.144Z,25.92
2022-10-21T23:15:43.120Z,24.42
2022-10-21T23:18:10.381Z,23.65
2022-10-21T23:20:37.463Z,23.55
2022-10-21T23:23:04.381Z,23.50
2022-10-21T23:25:31.328Z,22.95
2022-10-21T23:27:58.254Z,21.65
2022-10-21T23:30:25.060Z,21.30
2022-10-21T23:32:51.925Z,22.05
2022-10-21T23:35:19.269Z,21.17
2022-10-21T23:37:46.033Z,21.48
2022-10-21T23:40:13.078Z,21.00
2022-10-21T23:42:42.761Z,20.33
2022-10-21T23:45:11.341Z,19.75
2022-10-21T23:47:39.483Z,20.05
2022-10-21T23:50:07.811Z,19.73
2022-10-21T23:52:34.630Z,18.10
2022-10-21T23:55:01.435Z,18.55
2022-10-21T23:57:28.136Z,18.27
2022-10-21T23:59:54.925Z,18.45
